sensor_id;sensor_type;location;lat;lon;timestamp;P1;durP1;ratioP1;P2;durP2;ratioP2
46288;SDS011;63105;46.158;14.604;2023-07-29T00:02:18;3.17;;;1.87;;
46288;SDS011;63105;46.158;14.604;2023-07-29T00:04:43;3.43;;;1.70;;
46288;SDS011;63105;46.158;14.604;2023-07-29T00:07:08;3.60;;;1.80;;
46288;SDS011;63105;46.158;14.604;2023-07-29T00:09:33;4.03;;;2.60;;
46288;SDS011;63105;46.158;14.604;2023-07-29T00:11:58;3.57;;;1.90;;
46288;SDS011;63105;46.158;14.604;2023-07-29T00:14:24;3.53;;;1.70;;
46288;SDS011;63105;46.158;14.604;2023-07-29T00:16:49;3.30;;;2.00;;
46288;SDS011;63105;46.158;14.604;2023-07-29T00:19:14;3.60;;;2.07;;
46288;SDS011;63105;46.158;14.604;2023-07-29T00:21:39;3.10;;;1.77;;
46288;SDS011;63105;46.158;14.604;2023-07-29T00:24:06;3.60;;;2.00;;
46288;SDS011;63105;46.158;14.604;2023-07-29T00:26:31;4.13;;;2.10;;
46288;SDS011;63105;46.158;14.604;2023-07-29T00:28:57;4.15;;;1.85;;
46288;SDS011;63105;46.158;14.604;2023-07-29T00:31:22;3.20;;;1.92;;
46288;SDS011;63105;46.158;14.604;2023-07-29T00:33:47;4.70;;;2.00;;
46288;SDS011;63105;46.158;14.604;2023-07-29T00:36:13;3.27;;;1.80;;
46288;SDS011;63105;46.158;14.604;2023-07-29T00:38:38;4.10;;;1.92;;
46288;SDS011;63105;46.158;14.604;2023-07-29T00:41:03;3.93;;;2.17;;
46288;SDS011;63105;46.158;14.604;2023-07-29T00:43:28;3.15;;;1.90;;
46288;SDS011;63105;46.158;14.604;2023-07-29T00:45:54;3.38;;;1.98;;
46288;SDS011;63105;46.158;14.604;2023-07-29T00:48:19;4.03;;;1.75;;
46288;SDS011;63105;46.158;14.604;2023-07-29T00:50:44;3.35;;;1.95;;
46288;SDS011;63105;46.158;14.604;2023-07-29T00:53:10;3.63;;;1.80;;
46288;SDS011;63105;46.158;14.604;2023-07-29T00:55:35;3.60;;;2.05;;
46288;SDS011;63105;46.158;14.604;2023-07-29T00:58:00;3.60;;;2.10;;
46288;SDS011;63105;46.158;14.604;2023-07-29T01:00:25;3.45;;;1.60;;
46288;SDS011;63105;46.158;14.604;2023-07-29T01:02:52;3.10;;;1.88;;
46288;SDS011;63105;46.158;14.604;2023-07-29T01:05:19;3.58;;;2.00;;
46288;SDS011;63105;46.158;14.604;2023-07-29T01:07:51;3.53;;;1.88;;
46288;SDS011;63105;46.158;14.604;2023-07-29T01:10:19;3.47;;;2.00;;
46288;SDS011;63105;46.158;14.604;2023-07-29T01:13:31;3.17;;;1.70;;
46288;SDS011;63105;46.158;14.604;2023-07-29T01:15:40;3.10;;;1.70;;
46288;SDS011;63105;46.158;14.604;2023-07-29T01:18:11;3.35;;;1.58;;
46288;SDS011;63105;46.158;14.604;2023-07-29T01:20:38;3.15;;;1.80;;
46288;SDS011;63105;46.158;14.604;2023-07-29T01:23:05;3.10;;;1.77;;
46288;SDS011;63105;46.158;14.604;2023-07-29T01:25:30;3.60;;;1.90;;
46288;SDS011;63105;46.158;14.604;2023-07-29T01:27:55;3.07;;;1.63;;
46288;SDS011;63105;46.158;14.604;2023-07-29T01:30:21;3.22;;;1.70;;
46288;SDS011;63105;46.158;14.604;2023-07-29T01:38:06;2.92;;;1.70;;
46288;SDS011;63105;46.158;14.604;2023-07-29T01:40:34;3.05;;;1.80;;
46288;SDS011;63105;46.158;14.604;2023-07-29T01:42:59;3.40;;;1.63;;
46288;SDS011;63105;46.158;14.604;2023-07-29T01:45:25;3.83;;;2.03;;
46288;SDS011;63105;46.158;14.604;2023-07-29T01:47:53;3.45;;;1.73;;
46288;SDS011;63105;46.158;14.604;2023-07-29T01:50:18;3.38;;;1.70;;
46288;SDS011;63105;46.158;14.604;2023-07-29T01:52:43;3.65;;;1.70;;
46288;SDS011;63105;46.158;14.604;2023-07-29T01:55:08;2.83;;;1.63;;
46288;SDS011;63105;46.158;14.604;2023-07-29T01:57:34;3.10;;;1.80;;
46288;SDS011;63105;46.158;14.604;2023-07-29T01:59:59;3.20;;;1.70;;
46288;SDS011;63105;46.158;14.604;2023-07-29T02:02:24;3.85;;;1.70;;
46288;SDS011;63105;46.158;14.604;2023-07-29T02:04:49;3.08;;;1.85;;
46288;SDS011;63105;46.158;14.604;2023-07-29T02:07:16;2.90;;;1.70;;
46288;SDS011;63105;46.158;14.604;2023-07-29T02:09:42;3.20;;;1.70;;
46288;SDS011;63105;46.158;14.604;2023-07-29T02:12:07;3.60;;;1.80;;
46288;SDS011;63105;46.158;14.604;2023-07-29T02:14:32;3.28;;;1.88;;
46288;SDS011;63105;46.158;14.604;2023-07-29T02:16:57;3.33;;;1.80;;
46288;SDS011;63105;46.158;14.604;2023-07-29T02:19:22;2.93;;;1.60;;
46288;SDS011;63105;46.158;14.604;2023-07-29T02:21:48;3.03;;;1.80;;
46288;SDS011;63105;46.158;14.604;2023-07-29T02:24:13;4.53;;;1.80;;
46288;SDS011;63105;46.158;14.604;2023-07-29T02:26:38;2.75;;;1.50;;
46288;SDS011;63105;46.158;14.604;2023-07-29T02:29:03;2.60;;;1.43;;
46288;SDS011;63105;46.158;14.604;2023-07-29T02:31:29;2.80;;;1.50;;
46288;SDS011;63105;46.158;14.604;2023-07-29T02:33:54;3.60;;;1.85;;
46288;SDS011;63105;46.158;14.604;2023-07-29T02:36:20;2.97;;;1.52;;
46288;SDS011;63105;46.158;14.604;2023-07-29T02:38:45;3.33;;;1.50;;
46288;SDS011;63105;46.158;14.604;2023-07-29T02:41:11;3.67;;;1.60;;
46288;SDS011;63105;46.158;14.604;2023-07-29T02:43:38;3.65;;;1.70;;
46288;SDS011;63105;46.158;14.604;2023-07-29T02:46:03;3.10;;;1.77;;
46288;SDS011;63105;46.158;14.604;2023-07-29T02:48:28;3.08;;;1.60;;
46288;SDS011;63105;46.158;14.604;2023-07-29T02:50:54;3.07;;;1.77;;
46288;SDS011;63105;46.158;14.604;2023-07-29T02:53:19;3.85;;;2.25;;
46288;SDS011;63105;46.158;14.604;2023-07-29T02:55:44;3.28;;;1.80;;
46288;SDS011;63105;46.158;14.604;2023-07-29T02:58:10;5.67;;;1.90;;
46288;SDS011;63105;46.158;14.604;2023-07-29T03:00:35;3.93;;;1.60;;
46288;SDS011;63105;46.158;14.604;2023-07-29T03:03:00;3.40;;;1.77;;
46288;SDS011;63105;46.158;14.604;2023-07-29T03:05:29;3.70;;;1.80;;
46288;SDS011;63105;46.158;14.604;2023-07-29T03:07:54;3.20;;;1.83;;
46288;SDS011;63105;46.158;14.604;2023-07-29T03:10:19;4.17;;;2.43;;
46288;SDS011;63105;46.158;14.604;2023-07-29T03:12:45;4.10;;;2.08;;
46288;SDS011;63105;46.158;14.604;2023-07-29T03:15:11;3.53;;;1.80;;
46288;SDS011;63105;46.158;14.604;2023-07-29T03:17:36;4.72;;;1.90;;
46288;SDS011;63105;46.158;14.604;2023-07-29T03:20:01;3.47;;;2.00;;
46288;SDS011;63105;46.158;14.604;2023-07-29T03:22:26;3.20;;;1.83;;
46288;SDS011;63105;46.158;14.604;2023-07-29T03:24:52;3.33;;;1.85;;
46288;SDS011;63105;46.158;14.604;2023-07-29T03:27:17;3.85;;;2.00;;
46288;SDS011;63105;46.158;14.604;2023-07-29T03:29:42;4.55;;;2.10;;
46288;SDS011;63105;46.158;14.604;2023-07-29T03:32:08;3.55;;;1.80;;
46288;SDS011;63105;46.158;14.604;2023-07-29T03:34:33;3.53;;;1.97;;
46288;SDS011;63105;46.158;14.604;2023-07-29T03:36:59;3.85;;;2.30;;
46288;SDS011;63105;46.158;14.604;2023-07-29T03:39:24;4.40;;;2.00;;
46288;SDS011;63105;46.158;14.604;2023-07-29T03:41:49;3.60;;;2.00;;
46288;SDS011;63105;46.158;14.604;2023-07-29T03:44:14;4.10;;;1.90;;
46288;SDS011;63105;46.158;14.604;2023-07-29T03:46:39;3.15;;;1.92;;
46288;SDS011;63105;46.158;14.604;2023-07-29T03:49:05;3.30;;;1.70;;
46288;SDS011;63105;46.158;14.604;2023-07-29T03:51:30;3.43;;;1.83;;
46288;SDS011;63105;46.158;14.604;2023-07-29T03:53:55;4.13;;;2.00;;
46288;SDS011;63105;46.158;14.604;2023-07-29T03:56:20;3.30;;;1.70;;
46288;SDS011;63105;46.158;14.604;2023-07-29T03:58:46;3.33;;;1.83;;
46288;SDS011;63105;46.158;14.604;2023-07-29T04:01:11;3.35;;;1.90;;
46288;SDS011;63105;46.158;14.604;2023-07-29T04:03:37;3.10;;;1.67;;
46288;SDS011;63105;46.158;14.604;2023-07-29T04:06:02;4.13;;;1.97;;
46288;SDS011;63105;46.158;14.604;2023-07-29T04:08:27;3.03;;;1.42;;
46288;SDS011;63105;46.158;14.604;2023-07-29T04:10:52;3.80;;;1.80;;
46288;SDS011;63105;46.158;14.604;2023-07-29T04:13:18;3.28;;;1.70;;
46288;SDS011;63105;46.158;14.604;2023-07-29T04:15:43;3.00;;;1.63;;
46288;SDS011;63105;46.158;14.604;2023-07-29T04:18:08;3.30;;;1.77;;
46288;SDS011;63105;46.158;14.604;2023-07-29T04:20:33;2.80;;;1.50;;
46288;SDS011;63105;46.158;14.604;2023-07-29T04:22:58;3.22;;;1.60;;
46288;SDS011;63105;46.158;14.604;2023-07-29T04:25:24;3.20;;;1.75;;
46288;SDS011;63105;46.158;14.604;2023-07-29T04:27:49;3.63;;;1.60;;
46288;SDS011;63105;46.158;14.604;2023-07-29T04:30:14;3.38;;;1.80;;
46288;SDS011;63105;46.158;14.604;2023-07-29T04:32:39;3.67;;;1.83;;
46288;SDS011;63105;46.158;14.604;2023-07-29T04:35:07;3.10;;;1.50;;
46288;SDS011;63105;46.158;14.604;2023-07-29T04:37:32;2.75;;;1.50;;
46288;SDS011;63105;46.158;14.604;2023-07-29T04:39:57;2.70;;;1.60;;
46288;SDS011;63105;46.158;14.604;2023-07-29T04:42:22;3.13;;;1.60;;
46288;SDS011;63105;46.158;14.604;2023-07-29T04:44:48;2.97;;;1.70;;
46288;SDS011;63105;46.158;14.604;2023-07-29T04:47:13;4.57;;;1.70;;
46288;SDS011;63105;46.158;14.604;2023-07-29T04:49:38;3.60;;;1.70;;
46288;SDS011;63105;46.158;14.604;2023-07-29T04:52:04;3.88;;;1.80;;
46288;SDS011;63105;46.158;14.604;2023-07-29T04:54:29;3.00;;;1.60;;
46288;SDS011;63105;46.158;14.604;2023-07-29T04:56:54;3.63;;;1.75;;
46288;SDS011;63105;46.158;14.604;2023-07-29T04:59:19;3.20;;;1.60;;
46288;SDS011;63105;46.158;14.604;2023-07-29T05:01:45;3.57;;;1.77;;
46288;SDS011;63105;46.158;14.604;2023-07-29T05:04:10;2.72;;;1.42;;
46288;SDS011;63105;46.158;14.604;2023-07-29T05:06:36;2.87;;;1.60;;
46288;SDS011;63105;46.158;14.604;2023-07-29T05:09:17;2.90;;;1.50;;
46288;SDS011;63105;46.158;14.604;2023-07-29T05:11:45;3.30;;;1.65;;
46288;SDS011;63105;46.158;14.604;2023-07-29T05:14:10;3.08;;;1.48;;
46288;SDS011;63105;46.158;14.604;2023-07-29T05:16:36;2.70;;;1.55;;
46288;SDS011;63105;46.158;14.604;2023-07-29T05:19:01;4.07;;;1.70;;
46288;SDS011;63105;46.158;14.604;2023-07-29T05:21:26;3.13;;;1.73;;
46288;SDS011;63105;46.158;14.604;2023-07-29T05:23:51;3.23;;;1.70;;
46288;SDS011;63105;46.158;14.604;2023-07-29T05:26:16;3.70;;;1.80;;
46288;SDS011;63105;46.158;14.604;2023-07-29T05:28:42;2.97;;;1.80;;
46288;SDS011;63105;46.158;14.604;2023-07-29T05:31:07;3.07;;;1.70;;
46288;SDS011;63105;46.158;14.604;2023-07-29T05:33:32;3.10;;;1.70;;
46288;SDS011;63105;46.158;14.604;2023-07-29T05:35:57;3.10;;;1.70;;
46288;SDS011;63105;46.158;14.604;2023-07-29T05:38:23;3.73;;;1.90;;
46288;SDS011;63105;46.158;14.604;2023-07-29T05:40:48;3.70;;;1.80;;
46288;SDS011;63105;46.158;14.604;2023-07-29T05:43:13;3.80;;;1.90;;
46288;SDS011;63105;46.158;14.604;2023-07-29T05:45:39;3.22;;;1.63;;
46288;SDS011;63105;46.158;14.604;2023-07-29T05:48:06;3.10;;;1.70;;
46288;SDS011;63105;46.158;14.604;2023-07-29T05:50:31;3.60;;;1.97;;
46288;SDS011;63105;46.158;14.604;2023-07-29T05:52:56;3.30;;;1.70;;
46288;SDS011;63105;46.158;14.604;2023-07-29T05:55:21;3.25;;;1.70;;
46288;SDS011;63105;46.158;14.604;2023-07-29T05:57:46;3.23;;;1.80;;
46288;SDS011;63105;46.158;14.604;2023-07-29T06:00:12;3.23;;;1.87;;
46288;SDS011;63105;46.158;14.604;2023-07-29T06:02:37;3.65;;;1.83;;
46288;SDS011;63105;46.158;14.604;2023-07-29T06:05:02;3.38;;;1.85;;
46288;SDS011;63105;46.158;14.604;2023-07-29T06:07:29;4.28;;;1.77;;
46288;SDS011;63105;46.158;14.604;2023-07-29T06:09:55;3.30;;;1.90;;
46288;SDS011;63105;46.158;14.604;2023-07-29T06:12:21;2.60;;;1.60;;
46288;SDS011;63105;46.158;14.604;2023-07-29T06:14:46;4.30;;;2.00;;
46288;SDS011;63105;46.158;14.604;2023-07-29T06:17:11;3.47;;;1.90;;
46288;SDS011;63105;46.158;14.604;2023-07-29T06:19:36;3.55;;;1.80;;
46288;SDS011;63105;46.158;14.604;2023-07-29T06:22:02;4.20;;;1.87;;
46288;SDS011;63105;46.158;14.604;2023-07-29T06:24:27;3.03;;;1.70;;
46288;SDS011;63105;46.158;14.604;2023-07-29T06:26:52;2.70;;;1.50;;
46288;SDS011;63105;46.158;14.604;2023-07-29T06:29:17;2.92;;;1.63;;
46288;SDS011;63105;46.158;14.604;2023-07-29T06:31:43;3.13;;;1.63;;
46288;SDS011;63105;46.158;14.604;2023-07-29T06:34:08;4.10;;;1.70;;
46288;SDS011;63105;46.158;14.604;2023-07-29T06:36:33;4.13;;;1.70;;
46288;SDS011;63105;46.158;14.604;2023-07-29T06:38:58;3.97;;;1.80;;
46288;SDS011;63105;46.158;14.604;2023-07-29T06:41:24;4.45;;;2.22;;
46288;SDS011;63105;46.158;14.604;2023-07-29T06:43:49;3.30;;;1.90;;
46288;SDS011;63105;46.158;14.604;2023-07-29T06:46:14;3.20;;;1.83;;
46288;SDS011;63105;46.158;14.604;2023-07-29T06:48:39;2.73;;;1.70;;
46288;SDS011;63105;46.158;14.604;2023-07-29T06:51:04;3.67;;;1.80;;
46288;SDS011;63105;46.158;14.604;2023-07-29T06:53:30;3.17;;;1.77;;
46288;SDS011;63105;46.158;14.604;2023-07-29T06:55:55;3.30;;;1.57;;
46288;SDS011;63105;46.158;14.604;2023-07-29T06:58:20;3.25;;;1.80;;
46288;SDS011;63105;46.158;14.604;2023-07-29T07:00:46;5.50;;;2.53;;
46288;SDS011;63105;46.158;14.604;2023-07-29T07:03:11;4.27;;;2.30;;
46288;SDS011;63105;46.158;14.604;2023-07-29T07:05:36;3.93;;;2.10;;
46288;SDS011;63105;46.158;14.604;2023-07-29T07:08:01;3.63;;;1.97;;
46288;SDS011;63105;46.158;14.604;2023-07-29T07:10:26;4.05;;;2.13;;
46288;SDS011;63105;46.158;14.604;2023-07-29T07:12:52;3.70;;;2.00;;
46288;SDS011;63105;46.158;14.604;2023-07-29T07:15:17;3.63;;;2.00;;
46288;SDS011;63105;46.158;14.604;2023-07-29T07:17:42;3.67;;;2.05;;
46288;SDS011;63105;46.158;14.604;2023-07-29T07:20:07;3.27;;;1.70;;
46288;SDS011;63105;46.158;14.604;2023-07-29T07:22:33;3.55;;;1.83;;
46288;SDS011;63105;46.158;14.604;2023-07-29T07:24:58;3.53;;;1.97;;
46288;SDS011;63105;46.158;14.604;2023-07-29T07:27:23;4.10;;;1.93;;
46288;SDS011;63105;46.158;14.604;2023-07-29T07:29:48;4.00;;;1.90;;
46288;SDS011;63105;46.158;14.604;2023-07-29T07:32:14;3.50;;;1.90;;
46288;SDS011;63105;46.158;14.604;2023-07-29T07:34:39;3.57;;;2.00;;
46288;SDS011;63105;46.158;14.604;2023-07-29T07:37:04;5.10;;;1.97;;
46288;SDS011;63105;46.158;14.604;2023-07-29T07:39:29;4.25;;;2.20;;
46288;SDS011;63105;46.158;14.604;2023-07-29T07:41:55;5.03;;;2.10;;
46288;SDS011;63105;46.158;14.604;2023-07-29T07:44:20;5.20;;;1.70;;
46288;SDS011;63105;46.158;14.604;2023-07-29T07:46:45;4.22;;;1.90;;
46288;SDS011;63105;46.158;14.604;2023-07-29T07:49:10;4.75;;;2.00;;
46288;SDS011;63105;46.158;14.604;2023-07-29T07:51:36;3.63;;;2.03;;
46288;SDS011;63105;46.158;14.604;2023-07-29T07:54:01;4.13;;;1.83;;
46288;SDS011;63105;46.158;14.604;2023-07-29T07:56:26;4.25;;;2.08;;
46288;SDS011;63105;46.158;14.604;2023-07-29T07:58:51;7.37;;;2.30;;
46288;SDS011;63105;46.158;14.604;2023-07-29T08:01:16;3.87;;;1.90;;
46288;SDS011;63105;46.158;14.604;2023-07-29T08:03:42;13.63;;;3.33;;
46288;SDS011;63105;46.158;14.604;2023-07-29T08:06:07;21.25;;;5.47;;
46288;SDS011;63105;46.158;14.604;2023-07-29T08:08:32;5.57;;;2.70;;
46288;SDS011;63105;46.158;14.604;2023-07-29T08:10:57;6.43;;;2.67;;
46288;SDS011;63105;46.158;14.604;2023-07-29T08:13:23;5.10;;;2.63;;
46288;SDS011;63105;46.158;14.604;2023-07-29T08:15:49;5.85;;;2.90;;
46288;SDS011;63105;46.158;14.604;2023-07-29T08:18:15;4.28;;;2.55;;
46288;SDS011;63105;46.158;14.604;2023-07-29T08:20:41;5.53;;;2.47;;
46288;SDS011;63105;46.158;14.604;2023-07-29T08:23:07;4.75;;;2.30;;
46288;SDS011;63105;46.158;14.604;2023-07-29T08:25:32;4.17;;;2.30;;
46288;SDS011;63105;46.158;14.604;2023-07-29T08:27:57;3.93;;;2.30;;
46288;SDS011;63105;46.158;14.604;2023-07-29T08:30:22;3.37;;;2.00;;
46288;SDS011;63105;46.158;14.604;2023-07-29T08:32:49;2.90;;;1.60;;
46288;SDS011;63105;46.158;14.604;2023-07-29T08:35:15;2.90;;;1.55;;
46288;SDS011;63105;46.158;14.604;2023-07-29T08:37:41;2.90;;;1.50;;
46288;SDS011;63105;46.158;14.604;2023-07-29T08:40:07;3.97;;;1.70;;
46288;SDS011;63105;46.158;14.604;2023-07-29T08:42:32;3.15;;;1.60;;
46288;SDS011;63105;46.158;14.604;2023-07-29T08:45:01;4.03;;;1.58;;
46288;SDS011;63105;46.158;14.604;2023-07-29T08:47:31;3.17;;;1.80;;
46288;SDS011;63105;46.158;14.604;2023-07-29T08:49:56;4.37;;;1.60;;
46288;SDS011;63105;46.158;14.604;2023-07-29T08:52:21;4.97;;;1.58;;
46288;SDS011;63105;46.158;14.604;2023-07-29T08:54:47;5.32;;;1.70;;
46288;SDS011;63105;46.158;14.604;2023-07-29T08:57:13;4.75;;;1.90;;
46288;SDS011;63105;46.158;14.604;2023-07-29T08:59:38;4.05;;;1.60;;
46288;SDS011;63105;46.158;14.604;2023-07-29T09:02:03;10.00;;;2.30;;
46288;SDS011;63105;46.158;14.604;2023-07-29T09:04:29;3.80;;;1.67;;
46288;SDS011;63105;46.158;14.604;2023-07-29T09:06:54;3.27;;;1.53;;
46288;SDS011;63105;46.158;14.604;2023-07-29T09:09:21;3.35;;;1.67;;
46288;SDS011;63105;46.158;14.604;2023-07-29T09:11:46;3.90;;;1.38;;
46288;SDS011;63105;46.158;14.604;2023-07-29T09:14:11;3.10;;;1.60;;
46288;SDS011;63105;46.158;14.604;2023-07-29T09:16:37;2.90;;;1.63;;
46288;SDS011;63105;46.158;14.604;2023-07-29T09:19:02;4.13;;;1.90;;
46288;SDS011;63105;46.158;14.604;2023-07-29T09:21:31;2.97;;;1.45;;
46288;SDS011;63105;46.158;14.604;2023-07-29T09:23:56;3.05;;;1.50;;
46288;SDS011;63105;46.158;14.604;2023-07-29T09:26:25;2.97;;;1.50;;
46288;SDS011;63105;46.158;14.604;2023-07-29T09:28:52;2.53;;;1.40;;
46288;SDS011;63105;46.158;14.604;2023-07-29T09:31:19;2.72;;;1.30;;
46288;SDS011;63105;46.158;14.604;2023-07-29T09:33:47;3.20;;;1.50;;
46288;SDS011;63105;46.158;14.604;2023-07-29T09:36:13;2.85;;;1.48;;
46288;SDS011;63105;46.158;14.604;2023-07-29T09:38:38;2.10;;;1.20;;
46288;SDS011;63105;46.158;14.604;2023-07-29T09:41:04;3.85;;;1.50;;
46288;SDS011;63105;46.158;14.604;2023-07-29T09:43:30;2.67;;;1.40;;
46288;SDS011;63105;46.158;14.604;2023-07-29T09:45:59;2.78;;;1.33;;
46288;SDS011;63105;46.158;14.604;2023-07-29T09:48:24;3.17;;;1.42;;
46288;SDS011;63105;46.158;14.604;2023-07-29T09:50:49;2.70;;;1.30;;
46288;SDS011;63105;46.158;14.604;2023-07-29T09:53:15;3.30;;;1.50;;
46288;SDS011;63105;46.158;14.604;2023-07-29T09:55:40;3.40;;;1.50;;
46288;SDS011;63105;46.158;14.604;2023-07-29T09:58:10;3.22;;;1.55;;
46288;SDS011;63105;46.158;14.604;2023-07-29T10:00:36;3.00;;;1.48;;
46288;SDS011;63105;46.158;14.604;2023-07-29T10:03:03;2.85;;;1.55;;
46288;SDS011;63105;46.158;14.604;2023-07-29T10:05:28;2.95;;;1.60;;
46288;SDS011;63105;46.158;14.604;2023-07-29T10:07:54;2.65;;;1.48;;
46288;SDS011;63105;46.158;14.604;2023-07-29T10:10:19;2.45;;;1.40;;
46288;SDS011;63105;46.158;14.604;2023-07-29T10:12:45;2.85;;;1.48;;
46288;SDS011;63105;46.158;14.604;2023-07-29T10:15:10;3.72;;;1.70;;
46288;SDS011;63105;46.158;14.604;2023-07-29T10:17:37;2.77;;;1.60;;
46288;SDS011;63105;46.158;14.604;2023-07-29T10:20:06;2.85;;;1.65;;
46288;SDS011;63105;46.158;14.604;2023-07-29T10:22:39;3.33;;;1.63;;
46288;SDS011;63105;46.158;14.604;2023-07-29T10:25:05;4.00;;;1.63;;
46288;SDS011;63105;46.158;14.604;2023-07-29T10:27:34;2.70;;;1.50;;
46288;SDS011;63105;46.158;14.604;2023-07-29T10:30:00;2.50;;;1.45;;
46288;SDS011;63105;46.158;14.604;2023-07-29T10:32:26;2.97;;;1.73;;
46288;SDS011;63105;46.158;14.604;2023-07-29T10:34:52;3.08;;;1.60;;
46288;SDS011;63105;46.158;14.604;2023-07-29T10:37:17;2.88;;;1.77;;
46288;SDS011;63105;46.158;14.604;2023-07-29T10:39:51;3.88;;;1.80;;
46288;SDS011;63105;46.158;14.604;2023-07-29T10:42:16;2.83;;;1.60;;
46288;SDS011;63105;46.158;14.604;2023-07-29T10:47:13;2.80;;;1.70;;
46288;SDS011;63105;46.158;14.604;2023-07-29T10:49:45;4.00;;;1.63;;
46288;SDS011;63105;46.158;14.604;2023-07-29T10:52:14;3.58;;;1.80;;
46288;SDS011;63105;46.158;14.604;2023-07-29T10:54:44;3.22;;;1.70;;
46288;SDS011;63105;46.158;14.604;2023-07-29T10:57:13;2.72;;;1.42;;
46288;SDS011;63105;46.158;14.604;2023-07-29T10:59:40;2.67;;;1.48;;
46288;SDS011;63105;46.158;14.604;2023-07-29T11:02:12;2.83;;;1.60;;
46288;SDS011;63105;46.158;14.604;2023-07-29T11:04:52;2.92;;;1.70;;
46288;SDS011;63105;46.158;14.604;2023-07-29T11:14:52;2.65;;;1.35;;
46288;SDS011;63105;46.158;14.604;2023-07-29T11:17:17;2.73;;;1.50;;
46288;SDS011;63105;46.158;14.604;2023-07-29T11:19:42;2.30;;;1.30;;
46288;SDS011;63105;46.158;14.604;2023-07-29T11:22:09;3.22;;;1.70;;
46288;SDS011;63105;46.158;14.604;2023-07-29T11:24:34;3.00;;;1.60;;
46288;SDS011;63105;46.158;14.604;2023-07-29T11:26:59;2.67;;;1.60;;
46288;SDS011;63105;46.158;14.604;2023-07-29T11:29:25;3.43;;;1.77;;
46288;SDS011;63105;46.158;14.604;2023-07-29T11:31:50;2.83;;;1.65;;
46288;SDS011;63105;46.158;14.604;2023-07-29T11:34:16;3.22;;;1.75;;
46288;SDS011;63105;46.158;14.604;2023-07-29T11:36:45;3.78;;;1.80;;
46288;SDS011;63105;46.158;14.604;2023-07-29T11:39:10;3.15;;;1.90;;
46288;SDS011;63105;46.158;14.604;2023-07-29T11:41:36;3.28;;;1.70;;
46288;SDS011;63105;46.158;14.604;2023-07-29T11:44:01;3.30;;;1.50;;
46288;SDS011;63105;46.158;14.604;2023-07-29T11:46:27;2.63;;;1.40;;
46288;SDS011;63105;46.158;14.604;2023-07-29T11:48:53;2.58;;;1.33;;
46288;SDS011;63105;46.158;14.604;2023-07-29T11:51:18;3.25;;;1.70;;
46288;SDS011;63105;46.158;14.604;2023-07-29T11:53:44;2.93;;;1.50;;
46288;SDS011;63105;46.158;14.604;2023-07-29T11:56:09;2.55;;;1.20;;
46288;SDS011;63105;46.158;14.604;2023-07-29T11:58:36;2.60;;;1.35;;
46288;SDS011;63105;46.158;14.604;2023-07-29T12:01:01;2.40;;;1.30;;
46288;SDS011;63105;46.158;14.604;2023-07-29T12:03:28;2.65;;;1.42;;
46288;SDS011;63105;46.158;14.604;2023-07-29T12:05:53;2.35;;;1.25;;
46288;SDS011;63105;46.158;14.604;2023-07-29T12:08:18;2.50;;;1.40;;
46288;SDS011;63105;46.158;14.604;2023-07-29T12:10:44;2.88;;;1.38;;
46288;SDS011;63105;46.158;14.604;2023-07-29T12:13:09;2.30;;;1.25;;
46288;SDS011;63105;46.158;14.604;2023-07-29T12:15:34;3.20;;;1.80;;
46288;SDS011;63105;46.158;14.604;2023-07-29T12:18:00;2.90;;;1.43;;
46288;SDS011;63105;46.158;14.604;2023-07-29T12:20:25;2.77;;;1.63;;
46288;SDS011;63105;46.158;14.604;2023-07-29T12:23:00;3.22;;;1.40;;
46288;SDS011;63105;46.158;14.604;2023-07-29T12:25:31;2.83;;;1.40;;
46288;SDS011;63105;46.158;14.604;2023-07-29T12:27:56;2.63;;;1.40;;
46288;SDS011;63105;46.158;14.604;2023-07-29T12:30:22;2.80;;;1.30;;
46288;SDS011;63105;46.158;14.604;2023-07-29T12:32:47;2.58;;;1.30;;
46288;SDS011;63105;46.158;14.604;2023-07-29T12:35:13;2.88;;;1.25;;
46288;SDS011;63105;46.158;14.604;2023-07-29T12:37:38;2.33;;;1.20;;
46288;SDS011;63105;46.158;14.604;2023-07-29T12:40:07;2.38;;;1.15;;
46288;SDS011;63105;46.158;14.604;2023-07-29T12:42:33;3.45;;;1.40;;
46288;SDS011;63105;46.158;14.604;2023-07-29T12:44:59;3.20;;;1.60;;
46288;SDS011;63105;46.158;14.604;2023-07-29T12:47:24;2.83;;;1.43;;
46288;SDS011;63105;46.158;14.604;2023-07-29T12:49:50;3.50;;;1.60;;
46288;SDS011;63105;46.158;14.604;2023-07-29T12:52:15;3.10;;;1.45;;
46288;SDS011;63105;46.158;14.604;2023-07-29T12:54:41;2.57;;;1.30;;
46288;SDS011;63105;46.158;14.604;2023-07-29T12:57:09;2.60;;;1.30;;
46288;SDS011;63105;46.158;14.604;2023-07-29T12:59:34;2.93;;;1.70;;
46288;SDS011;63105;46.158;14.604;2023-07-29T13:01:59;2.83;;;1.67;;
46288;SDS011;63105;46.158;14.604;2023-07-29T13:04:24;2.73;;;1.40;;
46288;SDS011;63105;46.158;14.604;2023-07-29T13:06:49;2.77;;;1.40;;
46288;SDS011;63105;46.158;14.604;2023-07-29T13:09:15;3.80;;;1.50;;
46288;SDS011;63105;46.158;14.604;2023-07-29T13:11:40;2.60;;;1.30;;
46288;SDS011;63105;46.158;14.604;2023-07-29T13:14:05;3.15;;;1.42;;
46288;SDS011;63105;46.158;14.604;2023-07-29T13:16:30;2.17;;;1.27;;
46288;SDS011;63105;46.158;14.604;2023-07-29T13:18:56;2.80;;;1.40;;
46288;SDS011;63105;46.158;14.604;2023-07-29T13:21:21;4.25;;;1.95;;
46288;SDS011;63105;46.158;14.604;2023-07-29T13:23:46;2.65;;;1.48;;
46288;SDS011;63105;46.158;14.604;2023-07-29T13:26:12;2.60;;;1.33;;
46288;SDS011;63105;46.158;14.604;2023-07-29T13:28:37;2.90;;;1.40;;
46288;SDS011;63105;46.158;14.604;2023-07-29T13:31:02;3.20;;;1.63;;
46288;SDS011;63105;46.158;14.604;2023-07-29T13:33:28;3.40;;;1.20;;
46288;SDS011;63105;46.158;14.604;2023-07-29T13:35:53;2.47;;;1.20;;
46288;SDS011;63105;46.158;14.604;2023-07-29T13:38:18;2.83;;;1.40;;
46288;SDS011;63105;46.158;14.604;2023-07-29T13:40:45;2.80;;;1.40;;
46288;SDS011;63105;46.158;14.604;2023-07-29T13:43:10;3.10;;;1.50;;
46288;SDS011;63105;46.158;14.604;2023-07-29T13:45:35;2.80;;;1.30;;
46288;SDS011;63105;46.158;14.604;2023-07-29T13:48:00;3.33;;;1.57;;
46288;SDS011;63105;46.158;14.604;2023-07-29T13:50:26;2.57;;;1.30;;
46288;SDS011;63105;46.158;14.604;2023-07-29T13:52:51;3.23;;;1.30;;
46288;SDS011;63105;46.158;14.604;2023-07-29T13:55:16;3.00;;;1.40;;
46288;SDS011;63105;46.158;14.604;2023-07-29T13:57:41;3.33;;;1.47;;
46288;SDS011;63105;46.158;14.604;2023-07-29T14:00:07;3.23;;;1.50;;
46288;SDS011;63105;46.158;14.604;2023-07-29T14:02:33;3.05;;;1.48;;
46288;SDS011;63105;46.158;14.604;2023-07-29T14:04:58;3.80;;;1.70;;
46288;SDS011;63105;46.158;14.604;2023-07-29T14:07:23;2.83;;;1.40;;
46288;SDS011;63105;46.158;14.604;2023-07-29T14:09:48;2.90;;;1.47;;
46288;SDS011;63105;46.158;14.604;2023-07-29T14:12:14;2.67;;;1.13;;
46288;SDS011;63105;46.158;14.604;2023-07-29T14:14:40;3.00;;;1.40;;
46288;SDS011;63105;46.158;14.604;2023-07-29T14:17:06;2.92;;;1.60;;
46288;SDS011;63105;46.158;14.604;2023-07-29T14:19:33;3.47;;;1.50;;
46288;SDS011;63105;46.158;14.604;2023-07-29T14:21:58;3.10;;;1.50;;
46288;SDS011;63105;46.158;14.604;2023-07-29T14:24:23;3.17;;;1.52;;
46288;SDS011;63105;46.158;14.604;2023-07-29T14:26:49;3.30;;;1.70;;
46288;SDS011;63105;46.158;14.604;2023-07-29T14:29:14;3.43;;;1.60;;
46288;SDS011;63105;46.158;14.604;2023-07-29T14:31:39;2.30;;;1.30;;
46288;SDS011;63105;46.158;14.604;2023-07-29T14:34:04;2.60;;;1.20;;
46288;SDS011;63105;46.158;14.604;2023-07-29T14:36:29;2.77;;;1.30;;
46288;SDS011;63105;46.158;14.604;2023-07-29T14:38:54;3.07;;;1.30;;
46288;SDS011;63105;46.158;14.604;2023-07-29T14:41:20;2.90;;;1.50;;